createdAt,value
2019-01-19T00:01:42.610Z,27.60
2019-01-19T00:04:45.470Z,29.90
2019-01-19T00:07:48.321Z,26.07
2019-01-19T00:10:52.478Z,26.57
2019-01-19T00:13:41.818Z,35.23
2019-01-19T00:16:40.417Z,32.67
2019-01-19T00:19:49.689Z,32.97
2019-01-19T00:22:42.717Z,37.77
2019-01-19T00:25:54.813Z,34.37
2019-01-19T00:28:30.685Z,30.60
2019-01-19T00:31:27.477Z,33.67
2019-01-19T00:34:34.161Z,35.07
2019-01-19T00:37:37.725Z,39.73
2019-01-19T00:40:56.435Z,30.50
2019-01-19T00:43:43.142Z,37.83
2019-01-19T00:46:41.837Z,41.77
2019-01-19T00:49:29.533Z,36.83
2019-01-19T00:52:30.747Z,36.50
2019-01-19T00:55:20.475Z,33.10
2019-01-19T00:58:16.639Z,42.57
2019-01-19T01:00:52.507Z,37.43
2019-01-19T01:03:50.139Z,36.47
2019-01-19T01:06:47.181Z,47.07
2019-01-19T01:09:43.739Z,45.43
2019-01-19T01:12:50.981Z,41.37
2019-01-19T01:15:55.046Z,42.03
2019-01-19T01:18:55.849Z,43.30
2019-01-19T01:21:46.849Z,48.47
2019-01-19T01:24:22.829Z,43.57
2019-01-19T01:27:00.177Z,43.60
2019-01-19T01:30:11.401Z,43.70
2019-01-19T01:32:50.568Z,43.20
2019-01-19T01:35:58.939Z,41.33
2019-01-19T01:39:10.245Z,42.10
2019-01-19T01:41:59.973Z,43.87
2019-01-19T01:44:39.129Z,39.43
2019-01-19T01:48:03.219Z,44.47
2019-01-19T01:51:18.341Z,44.73
2019-01-19T01:54:17.590Z,44.30
2019-01-19T01:56:45.149Z,40.43
2019-01-19T01:59:21.686Z,37.80
2019-01-19T02:02:30.259Z,50.80
2019-01-19T02:05:41.949Z,40.40
2019-01-19T02:08:26.648Z,40.30
2019-01-19T02:11:16.785Z,40.90
2019-01-19T02:14:16.823Z,40.50
2019-01-19T02:17:08.345Z,45.60
2019-01-19T02:20:12.121Z,42.93
2019-01-19T02:23:17.471Z,40.47
2019-01-19T02:26:07.303Z,39.17
2019-01-19T02:29:12.809Z,40.60
2019-01-19T02:31:52.657Z,44.30
2019-01-19T02:35:10.897Z,43.80
2019-01-19T02:38:16.883Z,41.83
2019-01-19T02:41:39.465Z,43.03
2019-01-19T02:44:35.549Z,37.57
2019-01-19T02:47:42.278Z,39.40
2019-01-19T02:50:27.600Z,39.70
2019-01-19T02:53:17.614Z,41.27
2019-01-19T02:56:25.782Z,44.97
2019-01-19T02:59:29.011Z,42.97
2019-01-19T03:02:37.107Z,46.00
2019-01-19T03:05:29.049Z,42.70
2019-01-19T03:08:32.578Z,44.17
2019-01-19T03:11:26.422Z,41.60
2019-01-19T03:14:20.823Z,41.80
2019-01-19T03:17:35.791Z,42.63
2019-01-19T03:20:21.897Z,44.03
2019-01-19T03:22:59.257Z,46.47
2019-01-19T03:26:04.129Z,40.53
2019-01-19T03:29:17.052Z,35.90
2019-01-19T03:32:35.444Z,36.73
2019-01-19T03:35:42.153Z,40.20
2019-01-19T03:38:21.567Z,45.23
2019-01-19T03:41:16.787Z,41.27
2019-01-19T03:44:36.757Z,44.37
2019-01-19T03:47:55.330Z,49.40
2019-01-19T03:50:44.524Z,38.47
2019-01-19T03:53:38.471Z,44.77
2019-01-19T03:56:45.600Z,44.80
2019-01-19T03:59:57.258Z,38.07
2019-01-19T04:03:01.376Z,39.60
2019-01-19T04:05:55.161Z,43.80
2019-01-19T04:09:00.732Z,45.07
2019-01-19T04:12:08.160Z,39.20
2019-01-19T04:15:04.952Z,32.93
2019-01-19T04:18:07.699Z,45.50
2019-01-19T04:21:38.077Z,48.17
2019-01-19T04:24:16.357Z,40.07
2019-01-19T04:26:46.317Z,49.87
2019-01-19T04:29:13.809Z,51.00
2019-01-19T04:31:41.309Z,47.13
2019-01-19T04:34:09.008Z,44.07
2019-01-19T04:36:36.914Z,52.53
2019-01-19T04:39:08.719Z,44.27
2019-01-19T04:41:36.236Z,46.30
2019-01-19T04:44:03.977Z,43.27
2019-01-19T04:46:31.512Z,38.30
2019-01-19T04:48:59.091Z,48.77
2019-01-19T04:51:26.576Z,47.43
2019-01-19T04:53:54.110Z,41.27
2019-01-19T04:56:21.621Z,40.93
2019-01-19T04:58:49.094Z,45.60
2019-01-19T05:01:16.614Z,46.20
2019-01-19T05:03:44.109Z,47.43
2019-01-19T05:06:12.457Z,39.97
2019-01-19T05:08:40.278Z,54.90
2019-01-19T05:11:07.759Z,48.13
2019-01-19T05:13:35.268Z,48.80
2019-01-19T05:16:02.790Z,44.27
2019-01-19T05:18:30.290Z,39.60
2019-01-19T05:20:57.985Z,44.87
2019-01-19T05:23:25.613Z,43.43
2019-01-19T05:25:53.105Z,47.23
2019-01-19T05:28:20.592Z,45.00
2019-01-19T05:30:48.144Z,44.73
2019-01-19T05:33:15.629Z,45.70
2019-01-19T05:35:43.135Z,47.77
2019-01-19T05:38:10.676Z,43.77
2019-01-19T05:40:38.171Z,45.77
2019-01-19T05:43:05.771Z,49.63
2019-01-19T05:45:33.286Z,43.90
2019-01-19T05:48:00.769Z,53.23
2019-01-19T05:50:28.267Z,47.80
2019-01-19T05:52:55.809Z,45.03
2019-01-19T05:55:23.306Z,39.63
2019-01-19T05:57:50.809Z,50.13
2019-01-19T06:00:21.834Z,45.63
2019-01-19T06:02:49.355Z,46.17
2019-01-19T06:05:17.357Z,46.80
2019-01-19T06:07:45.033Z,42.50
2019-01-19T06:10:13.953Z,41.60
2019-01-19T06:12:41.465Z,47.77
2019-01-19T06:15:11.697Z,55.03
2019-01-19T06:17:39.218Z,40.60
2019-01-19T06:20:07.847Z,42.80
2019-01-19T06:22:35.343Z,44.43
2019-01-19T06:25:03.335Z,45.43
2019-01-19T06:27:30.833Z,46.97
2019-01-19T06:29:58.358Z,50.07
2019-01-19T06:32:25.881Z,44.93
2019-01-19T06:34:53.406Z,40.43
2019-01-19T06:37:20.959Z,47.40
2019-01-19T06:39:48.447Z,38.90
2019-01-19T06:42:15.948Z,33.10
2019-01-19T06:44:43.745Z,40.93
2019-01-19T06:47:11.233Z,40.53
2019-01-19T06:49:38.738Z,47.37
2019-01-19T06:52:06.308Z,40.60
2019-01-19T06:54:33.916Z,50.57
2019-01-19T06:57:01.396Z,44.10
2019-01-19T06:59:28.957Z,41.77
2019-01-19T07:01:56.460Z,36.47
2019-01-19T07:04:23.973Z,35.30
2019-01-19T07:06:51.524Z,37.23
2019-01-19T07:09:19.013Z,35.53
2019-01-19T07:11:46.916Z,35.80
2019-01-19T07:14:14.435Z,37.30
2019-01-19T07:16:41.942Z,35.43
2019-01-19T07:19:09.464Z,33.53
2019-01-19T07:21:36.965Z,39.87
2019-01-19T07:24:04.500Z,44.30
2019-01-19T07:26:35.036Z,45.80
2019-01-19T07:29:02.521Z,56.13
2019-01-19T07:31:30.062Z,55.07
2019-01-19T07:33:57.565Z,45.10
2019-01-19T07:36:25.078Z,36.47
2019-01-19T07:38:52.627Z,32.60
2019-01-19T07:41:20.134Z,31.37
2019-01-19T07:43:47.666Z,32.57
2019-01-19T07:46:15.608Z,30.93
2019-01-19T07:48:43.104Z,34.10
2019-01-19T07:51:11.550Z,32.03
2019-01-19T07:53:39.181Z,33.87
2019-01-19T07:56:06.811Z,37.40
2019-01-19T07:58:34.461Z,34.30
2019-01-19T08:01:02.110Z,31.47
2019-01-19T08:03:29.727Z,30.40
2019-01-19T08:05:57.334Z,31.37
2019-01-19T08:08:24.887Z,39.40
2019-01-19T08:10:52.416Z,31.57
2019-01-19T08:13:20.210Z,36.60
2019-01-19T08:15:47.756Z,35.07
2019-01-19T08:18:15.334Z,30.47
2019-01-19T08:20:42.844Z,40.67
2019-01-19T08:23:13.583Z,42.00
2019-01-19T08:25:41.114Z,44.50
2019-01-19T08:28:08.640Z,46.67
2019-01-19T08:30:36.240Z,48.13
2019-01-19T08:33:03.758Z,36.50
2019-01-19T08:35:34.111Z,40.57
2019-01-19T08:38:01.682Z,39.47
2019-01-19T08:40:34.602Z,35.67
2019-01-19T08:43:29.784Z,34.23
2019-01-19T08:45:58.615Z,50.73
2019-01-19T08:48:26.114Z,36.07
2019-01-19T08:50:53.668Z,39.70
2019-01-19T08:53:21.179Z,37.23
2019-01-19T08:55:48.691Z,45.63
2019-01-19T08:58:16.877Z,34.87
2019-01-19T09:00:44.355Z,40.50
2019-01-19T09:03:11.874Z,36.43
2019-01-19T09:05:39.456Z,37.33
2019-01-19T09:08:06.974Z,34.10
2019-01-19T09:10:34.529Z,36.70
2019-01-19T09:13:02.098Z,35.90
2019-01-19T09:15:29.702Z,34.73
2019-01-19T09:17:57.244Z,33.07
2019-01-19T09:20:24.840Z,28.80
2019-01-19T09:22:56.442Z,26.00
2019-01-19T09:25:23.958Z,30.60
2019-01-19T09:27:51.512Z,29.03
2019-01-19T09:30:19.346Z,30.20
2019-01-19T09:32:46.989Z,27.90
2019-01-19T09:35:14.554Z,35.33
2019-01-19T09:37:42.113Z,31.37
2019-01-19T09:40:11.312Z,33.23
2019-01-19T09:42:38.781Z,33.17
2019-01-19T09:45:07.202Z,36.73
2019-01-19T09:47:41.370Z,35.10
2019-01-19T09:50:10.553Z,35.80
2019-01-19T09:52:38.062Z,35.70
2019-01-19T09:55:05.856Z,42.97
2019-01-19T09:57:33.398Z,36.20
2019-01-19T10:00:00.906Z,27.77
2019-01-19T10:02:28.432Z,33.27
2019-01-19T10:04:56.044Z,41.50
2019-01-19T10:07:23.555Z,37.13
2019-01-19T10:09:51.077Z,33.50
2019-01-19T10:12:18.653Z,50.87
2019-01-19T10:14:46.272Z,35.97
2019-01-19T10:17:14.046Z,33.40
2019-01-19T10:19:41.671Z,42.50
2019-01-19T10:22:09.235Z,34.27
2019-01-19T10:24:36.773Z,36.27
2019-01-19T10:27:04.351Z,33.77
2019-01-19T10:29:31.941Z,40.47
2019-01-19T10:31:59.474Z,28.07
2019-01-19T10:34:27.076Z,39.83
2019-01-19T10:36:54.599Z,33.50
2019-01-19T10:39:22.146Z,53.97
2019-01-19T10:41:49.722Z,34.87
2019-01-19T10:44:17.270Z,35.93
2019-01-19T10:46:44.779Z,40.70
2019-01-19T10:49:12.669Z,47.10
2019-01-19T10:51:40.237Z,43.23
2019-01-19T10:54:07.746Z,47.07
2019-01-19T10:56:35.303Z,94.13
2019-01-19T10:59:02.888Z,50.30
2019-01-19T11:01:30.414Z,91.40
2019-01-19T11:03:58.009Z,85.80
2019-01-19T11:06:25.581Z,33.17
2019-01-19T11:08:53.104Z,27.67
2019-01-19T11:11:20.691Z,30.33
2019-01-19T11:13:48.263Z,37.23
2019-01-19T11:16:15.824Z,26.67
2019-01-19T11:18:43.401Z,27.63
2019-01-19T11:21:10.978Z,33.20
2019-01-19T11:23:39.869Z,37.63
2019-01-19T11:26:07.746Z,45.67
2019-01-19T11:28:35.305Z,49.60
2019-01-19T11:31:03.048Z,42.00
2019-01-19T11:33:30.662Z,42.87
2019-01-19T11:35:58.263Z,36.43
2019-01-19T11:38:30.147Z,47.40
2019-01-19T11:41:01.810Z,38.53
2019-01-19T11:43:33.207Z,38.47
2019-01-19T11:46:05.051Z,38.77
2019-01-19T11:48:36.022Z,38.13
2019-01-19T11:51:07.435Z,27.87
2019-01-19T11:53:34.976Z,36.60
2019-01-19T11:56:02.547Z,38.17
2019-01-19T11:58:30.135Z,43.13
2019-01-19T12:00:57.800Z,38.50
2019-01-19T12:03:25.373Z,33.50
2019-01-19T12:05:53.102Z,31.33
2019-01-19T12:08:20.618Z,39.77
2019-01-19T12:10:48.162Z,38.43
2019-01-19T12:13:15.762Z,41.77
2019-01-19T12:15:43.410Z,37.30
2019-01-19T12:18:11.090Z,40.47
2019-01-19T12:20:44.342Z,33.43
2019-01-19T12:23:12.172Z,49.50
2019-01-19T12:25:39.864Z,40.30
2019-01-19T12:28:07.479Z,34.73
2019-01-19T12:30:35.130Z,37.87
2019-01-19T12:33:02.707Z,47.27
2019-01-19T12:35:30.286Z,26.03
2019-01-19T12:37:58.168Z,27.77
2019-01-19T12:40:26.496Z,29.00
2019-01-19T12:42:56.751Z,32.93
2019-01-19T12:45:35.086Z,24.63
2019-01-19T12:48:02.675Z,34.17
2019-01-19T12:50:30.289Z,31.03
2019-01-19T12:52:57.915Z,53.77
2019-01-19T12:55:25.512Z,39.93
2019-01-19T12:57:53.285Z,40.97
2019-01-19T13:00:23.219Z,49.60
2019-01-19T13:02:50.901Z,48.43
2019-01-19T13:05:49.615Z,43.83
2019-01-19T13:08:19.374Z,88.13
2019-01-19T13:10:58.831Z,89.97
2019-01-19T13:13:34.500Z,82.80
2019-01-19T13:16:32.030Z,43.20
2019-01-19T13:19:44.818Z,57.37
2019-01-19T13:22:56.348Z,62.30
2019-01-19T13:25:41.768Z,41.83
2019-01-19T13:28:53.936Z,36.87
2019-01-19T13:32:09.601Z,46.37
2019-01-19T13:35:09.408Z,33.93
2019-01-19T13:38:15.690Z,40.97
2019-01-19T13:41:35.890Z,31.90
2019-01-19T13:44:40.467Z,45.70
2019-01-19T13:47:32.320Z,48.43
2019-01-19T13:50:25.231Z,49.30
2019-01-19T13:53:20.860Z,66.83
2019-01-19T13:56:45.475Z,65.97
2019-01-19T13:59:50.479Z,58.37
2019-01-19T14:02:51.972Z,56.07
2019-01-19T14:06:13.706Z,47.50
2019-01-19T14:09:24.882Z,27.97
2019-01-19T14:12:06.933Z,44.80
2019-01-19T14:15:05.286Z,33.73
2019-01-19T14:18:02.983Z,42.43
2019-01-19T14:21:13.343Z,36.17
2019-01-19T14:23:58.821Z,38.70
2019-01-19T14:27:23.037Z,51.10
2019-01-19T14:30:59.294Z,45.43
2019-01-19T14:34:03.293Z,67.03
2019-01-19T14:37:24.861Z,42.23
2019-01-19T14:40:27.538Z,37.83
2019-01-19T14:43:45.811Z,34.23
2019-01-19T14:46:51.313Z,52.47
2019-01-19T14:50:12.997Z,45.63
2019-01-19T14:53:19.198Z,41.37
2019-01-19T14:56:26.861Z,42.10
2019-01-19T14:59:22.226Z,47.33
2019-01-19T15:02:27.436Z,39.63
2019-01-19T15:05:23.317Z,48.23
2019-01-19T15:08:21.887Z,51.97
2019-01-19T15:11:31.231Z,41.47
2019-01-19T15:14:20.082Z,47.40
2019-01-19T15:17:13.959Z,39.90
2019-01-19T15:20:32.031Z,56.33
2019-01-19T15:23:33.711Z,73.77
2019-01-19T15:26:38.868Z,51.50
2019-01-19T15:30:03.158Z,40.23
2019-01-19T15:33:21.672Z,43.13
2019-01-19T15:36:22.449Z,43.00
2019-01-19T15:39:18.524Z,36.97
2019-01-19T15:42:42.863Z,43.13
2019-01-19T15:46:04.429Z,42.07
2019-01-19T15:49:03.341Z,55.37
2019-01-19T15:52:09.903Z,53.57
2019-01-19T15:55:25.327Z,43.47
2019-01-19T15:58:29.390Z,132.70
2019-01-19T16:01:41.462Z,102.10
2019-01-19T16:04:49.551Z,83.70
2019-01-19T16:08:08.239Z,70.43
2019-01-19T16:11:41.515Z,57.00
2019-01-19T16:14:38.620Z,46.73
2019-01-19T16:17:46.417Z,42.90
2019-01-19T16:20:41.696Z,36.47
2019-01-19T16:23:28.149Z,39.73
2019-01-19T16:26:46.157Z,43.83
2019-01-19T16:29:48.829Z,54.33
2019-01-19T16:32:54.546Z,55.20
2019-01-19T16:36:03.881Z,54.50
2019-01-19T16:39:31.124Z,53.40
2019-01-19T16:42:34.490Z,48.17
2019-01-19T16:45:39.689Z,42.03
2019-01-19T16:48:38.073Z,45.17
2019-01-19T16:51:35.800Z,54.33
2019-01-19T16:54:35.511Z,53.90
2019-01-19T16:58:06.762Z,104.60
2019-01-19T17:01:21.068Z,67.60
2019-01-19T17:04:41.845Z,72.77
2019-01-19T17:07:59.901Z,48.70
2019-01-19T17:11:07.491Z,64.37
2019-01-19T17:14:28.640Z,52.47
2019-01-19T17:17:33.625Z,55.27
2019-01-19T17:20:46.093Z,58.17
2019-01-19T17:23:34.417Z,47.57
2019-01-19T17:26:46.309Z,59.80
2019-01-19T17:30:04.442Z,66.07
2019-01-19T17:33:22.221Z,59.67
2019-01-19T17:36:42.741Z,69.67
2019-01-19T17:39:58.002Z,63.83
2019-01-19T17:42:54.142Z,70.77
2019-01-19T17:46:01.634Z,70.17
2019-01-19T17:49:03.151Z,88.97
2019-01-19T17:52:24.853Z,93.20
2019-01-19T17:55:49.041Z,141.90
2019-01-19T17:59:03.053Z,148.77
2019-01-19T18:02:23.775Z,127.83
2019-01-19T18:05:27.421Z,138.53
2019-01-19T18:08:33.930Z,151.37
2019-01-19T18:11:42.989Z,197.73
2019-01-19T18:14:58.286Z,182.23
2019-01-19T18:17:55.777Z,164.37
2019-01-19T18:20:47.770Z,144.33
2019-01-19T18:23:57.892Z,164.13
2019-01-19T18:26:51.865Z,129.10
2019-01-19T18:30:34.383Z,129.90
2019-01-19T18:33:37.234Z,119.43
2019-01-19T18:36:46.085Z,123.53
2019-01-19T18:40:03.132Z,138.43
2019-01-19T18:43:21.734Z,134.60
2019-01-19T18:46:24.215Z,135.53
2019-01-19T18:49:46.298Z,138.63
2019-01-19T18:53:07.717Z,131.83
2019-01-19T18:56:13.585Z,135.47
2019-01-19T18:59:19.221Z,129.63
2019-01-19T19:02:37.902Z,149.63
2019-01-19T19:05:44.418Z,143.13
2019-01-19T19:08:55.727Z,136.07
2019-01-19T19:11:58.086Z,146.43
2019-01-19T19:15:13.423Z,157.67
2019-01-19T19:18:37.095Z,157.97
2019-01-19T19:21:31.741Z,170.30
2019-01-19T19:24:41.133Z,156.37
2019-01-19T19:27:49.255Z,166.83
2019-01-19T19:30:41.206Z,163.07
2019-01-19T19:33:49.367Z,183.47
2019-01-19T19:36:54.482Z,160.40
2019-01-19T19:40:10.202Z,188.07
2019-01-19T19:43:11.485Z,169.60
2019-01-19T19:46:09.997Z,170.73
2019-01-19T19:49:28.457Z,181.70
2019-01-19T19:51:57.361Z,200.63
2019-01-19T19:54:26.094Z,251.50
2019-01-19T19:56:53.684Z,340.63
2019-01-19T19:59:21.345Z,289.47
2019-01-19T20:01:49.031Z,275.33
2019-01-19T20:04:16.646Z,249.90
2019-01-19T20:06:44.292Z,254.87
2019-01-19T20:09:11.971Z,247.17
2019-01-19T20:11:39.724Z,230.63
2019-01-19T20:14:07.667Z,222.93
2019-01-19T20:16:35.639Z,254.50
2019-01-19T20:19:03.623Z,251.47
2019-01-19T20:21:31.181Z,270.87
2019-01-19T20:23:58.721Z,268.47
2019-01-19T20:26:26.370Z,264.20
2019-01-19T20:28:53.910Z,282.53
2019-01-19T20:31:21.485Z,286.97
2019-01-19T20:33:49.079Z,330.77
2019-01-19T20:36:16.652Z,342.53
2019-01-19T20:38:44.161Z,372.33
2019-01-19T20:41:11.755Z,363.23
2019-01-19T20:43:39.282Z,390.80
2019-01-19T20:46:06.795Z,372.43
2019-01-19T20:48:34.433Z,444.90
2019-01-19T20:51:01.995Z,462.53
2019-01-19T20:53:29.521Z,447.20
2019-01-19T20:55:57.052Z,448.87
2019-01-19T20:58:24.591Z,411.70
2019-01-19T21:00:52.262Z,457.63
2019-01-19T21:03:19.796Z,498.60
2019-01-19T21:05:47.347Z,509.43
2019-01-19T21:08:14.956Z,500.97
2019-01-19T21:10:42.422Z,533.10
2019-01-19T21:13:09.942Z,517.53
2019-01-19T21:15:37.521Z,494.67
2019-01-19T21:18:05.226Z,466.83
2019-01-19T21:20:34.368Z,479.43
2019-01-19T21:23:01.971Z,471.97
2019-01-19T21:25:33.702Z,452.83
2019-01-19T21:28:01.291Z,484.43
2019-01-19T21:30:28.860Z,455.17
2019-01-19T21:32:56.393Z,467.07
2019-01-19T21:35:23.947Z,446.53
2019-01-19T21:37:51.490Z,476.67
2019-01-19T21:40:19.011Z,412.33
2019-01-19T21:42:46.578Z,429.97
2019-01-19T21:45:16.615Z,455.00
2019-01-19T21:47:44.154Z,430.97
2019-01-19T21:50:12.007Z,422.97
2019-01-19T21:52:39.544Z,425.70
2019-01-19T21:55:07.447Z,366.73
2019-01-19T21:57:35.029Z,344.40
2019-01-19T22:00:04.008Z,329.47
2019-01-19T22:02:31.561Z,316.10
2019-01-19T22:04:59.157Z,300.90
2019-01-19T22:07:26.673Z,289.87
2019-01-19T22:09:54.284Z,251.20
2019-01-19T22:12:21.851Z,253.10
2019-01-19T22:14:49.402Z,278.80
2019-01-19T22:17:16.962Z,240.00
2019-01-19T22:19:44.511Z,302.13
2019-01-19T22:22:12.074Z,408.43
2019-01-19T22:24:39.670Z,399.27
2019-01-19T22:27:08.004Z,431.07
2019-01-19T22:29:35.571Z,457.50
2019-01-19T22:32:03.254Z,459.90
2019-01-19T22:34:30.785Z,466.00
2019-01-19T22:36:58.305Z,440.73
2019-01-19T22:39:25.909Z,474.30
2019-01-19T22:41:53.441Z,471.70
2019-01-19T22:44:21.014Z,486.57
2019-01-19T22:46:48.541Z,483.73
2019-01-19T22:49:16.058Z,474.00
2019-01-19T22:51:43.585Z,459.47
2019-01-19T22:54:11.179Z,454.87
2019-01-19T22:56:38.785Z,474.43
2019-01-19T22:59:06.313Z,469.70
2019-01-19T23:01:41.237Z,491.70
2019-01-19T23:04:08.779Z,433.30
2019-01-19T23:06:36.344Z,431.33
2019-01-19T23:09:10.021Z,485.90
2019-01-19T23:11:37.724Z,471.03
2019-01-19T23:14:06.265Z,381.93
2019-01-19T23:16:33.883Z,452.90
2019-01-19T23:19:01.501Z,487.27
2019-01-19T23:21:29.096Z,481.53
2019-01-19T23:23:56.700Z,476.30
2019-01-19T23:26:24.195Z,444.83
2019-01-19T23:28:51.728Z,437.60
2019-01-19T23:31:19.312Z,484.00
2019-01-19T23:33:46.857Z,471.63
2019-01-19T23:36:14.357Z,521.73
2019-01-19T23:38:42.072Z,533.73
2019-01-19T23:41:09.577Z,502.17
2019-01-19T23:43:37.086Z,482.20
2019-01-19T23:46:05.511Z,475.67
2019-01-19T23:48:33.080Z,445.63
2019-01-19T23:51:00.635Z,435.30
2019-01-19T23:53:28.140Z,495.80
2019-01-19T23:55:55.685Z,459.20
2019-01-19T23:58:23.179Z,419.83
